PWSweather.com
Personal Weather Stations
Station Observations
INORDPAS37
Bondues, BonduesFR 59910

BonduesBonduesFR 59910

Lat: 50.7, Lon: 3.09

Elevation: 102

Station Type: Netatmo

http://bondues.meteoamikuze.com

High Low Average
Temperature 42.8°F6.0°C 32.5°F0.3°C 36.9°F2.7°C
Dew Point 28.0°F-2.2°C 21.7°F-5.7°C 24.2°F-4.3°C
Winds 4.9 mph 7.9 kmh 1.3 mph 2.1 kmh 3.0 mph WSW4.8 kmh WSW
Wind Gusts 12.5 mph20.1 kmh 2.5 mph4.0 kmh 8.0 mph12.9 kmh
Humidity 70% 58% 65%
Pressure 30.05 in1017.6 mb 29.83 in1010.2 mb -
Precipitation 0.01 in0.3 mm - -
Hour Temp Dew Point Humidity Winds Wind Gusts Pressure Precip Precip Rate Daily Precip Total
12:15 AM 33.8°F1.0°C 23.0°F-5.0°C 70% 3.1 mph W5.0 kmh W 6.9 mph11.1 kmh 29.83 in1010.2 mb 0.00 in0.0 mm 0.00 in0.0 mm 0.00 in0.0 mm
12:35 AM 33.8°F1.0°C 23.0°F-5.0°C 70% 3.1 mph WSW5.0 kmh WSW 7.4 mph11.9 kmh 29.84 in1010.5 mb 0.00 in0.0 mm 0.00 in0.0 mm 0.00 in0.0 mm
12:55 AM 34.0°F1.1°C 23.2°F-4.9°C 70% 3.1 mph W5.0 kmh W 7.4 mph11.9 kmh 29.84 in1010.5 mb 0.00 in0.0 mm 0.00 in0.0 mm 0.00 in0.0 mm
01:15 AM 34.2°F1.2°C 23.4°F-4.8°C 70% 3.8 mph WSW6.1 kmh WSW 8.7 mph14.0 kmh 29.85 in1010.8 mb 0.00 in0.0 mm 0.01 in0.3 mm 0.00 in0.0 mm
01:35 AM 34.0°F1.1°C 23.2°F-4.9°C 70% 3.1 mph WSW5.0 kmh WSW 7.4 mph11.9 kmh 29.86 in1011.2 mb 0.00 in0.0 mm 0.00 in0.0 mm 0.00 in0.0 mm
01:55 AM 34.0°F1.1°C 23.2°F-4.9°C 70% 3.1 mph W5.0 kmh W 5.6 mph9.0 kmh 29.87 in1011.5 mb 0.00 in0.0 mm 0.00 in0.0 mm 0.00 in0.0 mm
02:15 AM 34.2°F1.2°C 23.4°F-4.8°C 70% 3.8 mph W6.1 kmh W 7.4 mph11.9 kmh 29.88 in1011.9 mb 0.00 in0.0 mm 0.00 in0.0 mm 0.00 in0.0 mm
02:21 AM 34.5°F1.4°C 23.7°F-4.6°C 70% 3.8 mph W6.1 kmh W 8.1 mph13.0 kmh 29.88 in1011.9 mb 0.00 in0.0 mm 0.00 in0.0 mm 0.00 in0.0 mm
02:45 AM 34.5°F1.4°C 23.7°F-4.6°C 70% 3.1 mph W5.0 kmh W 8.1 mph13.0 kmh 29.89 in1012.2 mb 0.00 in0.0 mm 0.00 in0.0 mm 0.00 in0.0 mm
03:05 AM 34.7°F1.5°C 23.9°F-4.5°C 70% 3.1 mph W5.0 kmh W 7.4 mph11.9 kmh 29.90 in1012.5 mb 0.00 in0.0 mm 0.00 in0.0 mm 0.00 in0.0 mm
03:21 AM 34.7°F1.5°C 23.9°F-4.5°C 70% 4.3 mph W6.9 kmh W 9.8 mph15.8 kmh 29.90 in1012.5 mb 0.00 in0.0 mm 0.00 in0.0 mm 0.00 in0.0 mm
03:41 AM 34.7°F1.5°C 23.9°F-4.5°C 70% 3.8 mph W6.1 kmh W 7.4 mph11.9 kmh 29.91 in1012.9 mb 0.00 in0.0 mm 0.00 in0.0 mm 0.00 in0.0 mm
04:01 AM 34.7°F1.5°C 23.9°F-4.5°C 70% 3.8 mph W6.1 kmh W 8.1 mph13.0 kmh 29.91 in1012.9 mb 0.00 in0.0 mm 0.00 in0.0 mm 0.00 in0.0 mm
04:22 AM 34.5°F1.4°C 23.7°F-4.6°C 70% 4.3 mph W6.9 kmh W 9.4 mph15.1 kmh 29.92 in1013.2 mb 0.00 in0.0 mm 0.00 in0.0 mm 0.00 in0.0 mm
04:42 AM 34.5°F1.4°C 23.7°F-4.6°C 70% 3.8 mph W6.1 kmh W 8.7 mph14.0 kmh 29.92 in1013.2 mb 0.00 in0.0 mm 0.00 in0.0 mm 0.00 in0.0 mm
05:02 AM 34.2°F1.2°C 23.4°F-4.8°C 70% 3.8 mph W6.1 kmh W 8.1 mph13.0 kmh 29.93 in1013.5 mb 0.00 in0.0 mm 0.00 in0.0 mm 0.00 in0.0 mm
05:23 AM 33.8°F1.0°C 23.0°F-5.0°C 70% 3.8 mph W6.1 kmh W 7.4 mph11.9 kmh 29.93 in1013.5 mb 0.00 in0.0 mm 0.00 in0.0 mm 0.00 in0.0 mm
05:43 AM 33.6°F0.9°C 22.8°F-5.1°C 70% 3.1 mph WSW5.0 kmh WSW 8.7 mph14.0 kmh 29.94 in1013.9 mb 0.00 in0.0 mm 0.00 in0.0 mm 0.00 in0.0 mm
06:03 AM 33.8°F1.0°C 23.0°F-5.0°C 70% 4.3 mph W6.9 kmh W 9.8 mph15.8 kmh 29.95 in1014.2 mb 0.00 in0.0 mm 0.00 in0.0 mm 0.00 in0.0 mm
06:23 AM 33.8°F1.0°C 23.0°F-5.0°C 70% 3.1 mph W5.0 kmh W 8.7 mph14.0 kmh 29.95 in1014.2 mb 0.00 in0.0 mm 0.00 in0.0 mm 0.00 in0.0 mm
06:47 AM 33.6°F0.9°C 22.8°F-5.1°C 70% 3.8 mph W6.1 kmh W 7.4 mph11.9 kmh 29.96 in1014.6 mb 0.00 in0.0 mm 0.00 in0.0 mm 0.00 in0.0 mm
07:08 AM 33.4°F0.8°C 22.6°F-5.2°C 70% 3.1 mph WSW5.0 kmh WSW 8.7 mph14.0 kmh 29.97 in1014.9 mb 0.00 in0.0 mm 0.00 in0.0 mm 0.00 in0.0 mm
07:28 AM 33.3°F0.7°C 22.5°F-5.3°C 70% 2.5 mph W4.0 kmh W 8.7 mph14.0 kmh 29.97 in1014.9 mb 0.00 in0.0 mm 0.00 in0.0 mm 0.00 in0.0 mm
07:48 AM 33.3°F0.7°C 22.5°F-5.3°C 70% 3.8 mph W6.1 kmh W 7.4 mph11.9 kmh 29.98 in1015.2 mb 0.00 in0.0 mm 0.00 in0.0 mm 0.00 in0.0 mm
08:08 AM 33.1°F0.6°C 22.3°F-5.4°C 70% 3.8 mph W6.1 kmh W 7.4 mph11.9 kmh 29.99 in1015.6 mb 0.00 in0.0 mm 0.00 in0.0 mm 0.00 in0.0 mm
08:29 AM 32.7°F0.4°C 21.9°F-5.6°C 70% 3.1 mph WSW5.0 kmh WSW 7.4 mph11.9 kmh 30.00 in1015.9 mb 0.00 in0.0 mm 0.00 in0.0 mm 0.00 in0.0 mm
08:55 AM 32.5°F0.3°C 21.7°F-5.7°C 70% 3.8 mph W6.1 kmh W 7.4 mph11.9 kmh 30.00 in1015.9 mb 0.00 in0.0 mm 0.00 in0.0 mm 0.00 in0.0 mm
09:15 AM 32.7°F0.4°C 21.9°F-5.6°C 70% 3.1 mph WSW5.0 kmh WSW 5.6 mph9.0 kmh 30.01 in1016.3 mb 0.00 in0.0 mm 0.00 in0.0 mm 0.00 in0.0 mm
09:35 AM 32.9°F0.5°C 22.1°F-5.5°C 70% 3.1 mph WSW5.0 kmh WSW 7.4 mph11.9 kmh 30.01 in1016.3 mb 0.00 in0.0 mm 0.00 in0.0 mm 0.00 in0.0 mm
09:45 AM 33.6°F0.9°C 22.8°F-5.1°C 70% 3.1 mph WSW5.0 kmh WSW 7.4 mph11.9 kmh 30.02 in1016.6 mb 0.00 in0.0 mm 0.00 in0.0 mm 0.00 in0.0 mm
10:05 AM 35.1°F1.7°C 24.3°F-4.3°C 70% 3.1 mph WSW5.0 kmh WSW 6.9 mph11.1 kmh 30.03 in1016.9 mb 0.00 in0.0 mm 0.00 in0.0 mm 0.00 in0.0 mm
10:26 AM 36.5°F2.5°C 25.3°F-3.7°C 69% 3.8 mph WSW6.1 kmh WSW 8.1 mph13.0 kmh 30.03 in1016.9 mb 0.00 in0.0 mm 0.00 in0.0 mm 0.00 in0.0 mm
10:46 AM 37.4°F3.0°C 26.1°F-3.3°C 69% 3.8 mph WSW6.1 kmh WSW 7.4 mph11.9 kmh 30.03 in1016.9 mb 0.00 in0.0 mm 0.00 in0.0 mm 0.00 in0.0 mm
11:06 AM 38.3°F3.5°C 26.6°F-3.0°C 68% 4.3 mph WNW6.9 kmh WNW 8.1 mph13.0 kmh 30.03 in1016.9 mb 0.00 in0.0 mm 0.00 in0.0 mm 0.00 in0.0 mm
11:27 AM 39.4°F4.1°C 27.7°F-2.4°C 68% 3.8 mph WSW6.1 kmh WSW 12.5 mph20.1 kmh 30.04 in1017.3 mb 0.00 in0.0 mm 0.00 in0.0 mm 0.00 in0.0 mm
11:46 AM 39.9°F4.4°C 27.5°F-2.5°C 66% 4.3 mph WSW6.9 kmh WSW 9.4 mph15.1 kmh 30.05 in1017.6 mb 0.00 in0.0 mm 0.01 in0.3 mm 0.01 in0.3 mm
12:15 PM 40.1°F4.5°C 27.1°F-2.7°C 65% 4.9 mph W7.9 kmh W 9.8 mph15.8 kmh 30.05 in1017.6 mb 0.00 in0.0 mm 0.00 in0.0 mm 0.01 in0.3 mm
12:22 PM 40.8°F4.9°C 27.9°F-2.3°C 65% 3.1 mph W5.0 kmh W 8.1 mph13.0 kmh 30.04 in1017.3 mb 0.01 in0.3 mm 0.03 in0.8 mm 0.01 in0.3 mm
12:42 PM 41.2°F5.1°C 27.5°F-2.5°C 63% 4.3 mph W6.9 kmh W 8.1 mph13.0 kmh 30.05 in1017.6 mb 0.00 in0.0 mm 0.00 in0.0 mm 0.01 in0.3 mm
01:06 PM 41.7°F5.4°C 28.0°F-2.2°C 63% 3.8 mph W6.1 kmh W 9.8 mph15.8 kmh 30.05 in1017.6 mb 0.00 in0.0 mm 0.00 in0.0 mm 0.01 in0.3 mm
01:25 PM 42.4°F5.8°C 28.0°F-2.2°C 61% 3.8 mph W6.1 kmh W 8.7 mph14.0 kmh 30.05 in1017.6 mb 0.00 in0.0 mm 0.00 in0.0 mm 0.01 in0.3 mm
01:46 PM 42.8°F6.0°C 27.5°F-2.5°C 59% 4.3 mph W6.9 kmh W 9.4 mph15.1 kmh 30.04 in1017.3 mb 0.00 in0.0 mm 0.00 in0.0 mm 0.01 in0.3 mm
02:06 PM 42.8°F6.0°C 27.1°F-2.7°C 58% 4.3 mph W6.9 kmh W 9.4 mph15.1 kmh 30.04 in1017.3 mb 0.00 in0.0 mm 0.00 in0.0 mm 0.01 in0.3 mm
02:26 PM 42.6°F5.9°C 27.3°F-2.6°C 59% 3.8 mph W6.1 kmh W 9.4 mph15.1 kmh 30.03 in1016.9 mb 0.00 in0.0 mm 0.00 in0.0 mm 0.01 in0.3 mm
02:47 PM 42.3°F5.7°C 26.6°F-3.0°C 58% 4.3 mph W6.9 kmh W 11.9 mph19.2 kmh 30.03 in1016.9 mb 0.00 in0.0 mm 0.00 in0.0 mm 0.01 in0.3 mm
03:06 PM 41.5°F5.3°C 26.1°F-3.3°C 58% 3.8 mph W6.1 kmh W 10.5 mph16.9 kmh 30.03 in1016.9 mb 0.00 in0.0 mm 0.00 in0.0 mm 0.01 in0.3 mm
03:27 PM 41.4°F5.2°C 25.9°F-3.4°C 58% 1.8 mph WSW2.9 kmh WSW 5.6 mph9.0 kmh 30.03 in1016.9 mb 0.00 in0.0 mm 0.00 in0.0 mm 0.01 in0.3 mm
03:47 PM 41.9°F5.5°C 26.2°F-3.2°C 58% 2.5 mph W4.0 kmh W 6.9 mph11.1 kmh 30.03 in1016.9 mb 0.00 in0.0 mm 0.00 in0.0 mm 0.01 in0.3 mm
04:07 PM 42.8°F6.0°C 27.1°F-2.7°C 58% 3.8 mph WSW6.1 kmh WSW 9.8 mph15.8 kmh 30.03 in1016.9 mb 0.00 in0.0 mm 0.00 in0.0 mm 0.01 in0.3 mm
04:26 PM 42.8°F6.0°C 27.1°F-2.7°C 58% 3.1 mph WSW5.0 kmh WSW 11.9 mph19.2 kmh 30.03 in1016.9 mb 0.00 in0.0 mm 0.00 in0.0 mm 0.01 in0.3 mm
04:47 PM 42.3°F5.7°C 26.6°F-3.0°C 58% 3.8 mph WSW6.1 kmh WSW 8.7 mph14.0 kmh 30.03 in1016.9 mb 0.00 in0.0 mm 0.00 in0.0 mm 0.01 in0.3 mm
05:07 PM 41.7°F5.4°C 26.2°F-3.2°C 58% 3.8 mph WSW6.1 kmh WSW 9.8 mph15.8 kmh 30.03 in1016.9 mb 0.00 in0.0 mm 0.00 in0.0 mm 0.01 in0.3 mm
05:27 PM 41.4°F5.2°C 25.9°F-3.4°C 58% 2.5 mph WSW4.0 kmh WSW 8.1 mph13.0 kmh 30.03 in1016.9 mb 0.00 in0.0 mm 0.00 in0.0 mm 0.01 in0.3 mm
05:48 PM 40.6°F4.8°C 25.2°F-3.8°C 58% 2.5 mph WSW4.0 kmh WSW 5.6 mph9.0 kmh 30.03 in1016.9 mb 0.00 in0.0 mm 0.00 in0.0 mm 0.01 in0.3 mm
06:03 PM 40.1°F4.5°C 25.0°F-3.9°C 59% 1.8 mph SW2.9 kmh SW 3.8 mph6.1 kmh 30.03 in1016.9 mb 0.00 in0.0 mm 0.00 in0.0 mm 0.01 in0.3 mm
06:23 PM 39.2°F4.0°C 24.1°F-4.4°C 59% 2.5 mph WSW4.0 kmh WSW 5.6 mph9.0 kmh 30.03 in1016.9 mb 0.00 in0.0 mm 0.00 in0.0 mm 0.01 in0.3 mm
06:43 PM 38.5°F3.6°C 23.9°F-4.5°C 60% 3.1 mph SW5.0 kmh SW 5.6 mph9.0 kmh 30.04 in1017.3 mb 0.00 in0.0 mm 0.00 in0.0 mm 0.01 in0.3 mm
07:04 PM 37.9°F3.3°C 23.4°F-4.8°C 60% 1.8 mph SW2.9 kmh SW 4.3 mph6.9 kmh 30.03 in1016.9 mb 0.00 in0.0 mm 0.00 in0.0 mm 0.01 in0.3 mm
07:27 PM 37.2°F2.9°C 23.0°F-5.0°C 61% 1.3 mph SW2.1 kmh SW 2.5 mph4.0 kmh 30.03 in1016.9 mb 0.00 in0.0 mm 0.00 in0.0 mm 0.01 in0.3 mm
07:46 PM 36.7°F2.6°C 22.5°F-5.3°C 61% 1.8 mph SW2.9 kmh SW 4.3 mph6.9 kmh 30.03 in1016.9 mb 0.00 in0.0 mm 0.00 in0.0 mm 0.01 in0.3 mm
08:07 PM 36.5°F2.5°C 22.3°F-5.4°C 61% 1.8 mph SW2.9 kmh SW 4.3 mph6.9 kmh 30.03 in1016.9 mb 0.00 in0.0 mm 0.00 in0.0 mm 0.01 in0.3 mm
08:27 PM 36.5°F2.5°C 22.6°F-5.2°C 62% 1.8 mph SW2.9 kmh SW 4.9 mph7.9 kmh 30.03 in1016.9 mb 0.00 in0.0 mm 0.00 in0.0 mm 0.01 in0.3 mm
08:47 PM 36.5°F2.5°C 22.6°F-5.2°C 62% 1.8 mph SW2.9 kmh SW 4.9 mph7.9 kmh 30.03 in1016.9 mb 0.00 in0.0 mm 0.00 in0.0 mm 0.01 in0.3 mm
09:02 PM 36.3°F2.4°C 22.5°F-5.3°C 62% 2.5 mph SW4.0 kmh SW 5.6 mph9.0 kmh 30.03 in1016.9 mb 0.00 in0.0 mm 0.00 in0.0 mm 0.01 in0.3 mm
09:26 PM 36.3°F2.4°C 22.8°F-5.1°C 63% 2.5 mph SW4.0 kmh SW 6.9 mph11.1 kmh 30.03 in1016.9 mb 0.00 in0.0 mm 0.00 in0.0 mm 0.01 in0.3 mm
09:46 PM 36.7°F2.6°C 23.2°F-4.9°C 63% 3.1 mph SW5.0 kmh SW 6.9 mph11.1 kmh 30.03 in1016.9 mb 0.00 in0.0 mm 0.00 in0.0 mm 0.01 in0.3 mm
10:07 PM 36.9°F2.7°C 23.4°F-4.8°C 63% 1.8 mph SW2.9 kmh SW 4.3 mph6.9 kmh 30.02 in1016.6 mb 0.00 in0.0 mm 0.00 in0.0 mm 0.01 in0.3 mm
10:26 PM 36.3°F2.4°C 23.2°F-4.9°C 64% 1.8 mph SW2.9 kmh SW 4.3 mph6.9 kmh 30.02 in1016.6 mb 0.00 in0.0 mm 0.00 in0.0 mm 0.01 in0.3 mm
10:47 PM 36.0°F2.2°C 23.0°F-5.0°C 64% 3.1 mph SW5.0 kmh SW 4.9 mph7.9 kmh 30.01 in1016.3 mb 0.00 in0.0 mm 0.00 in0.0 mm 0.01 in0.3 mm
11:07 PM 35.2°F1.8°C 22.3°F-5.4°C 64% 1.8 mph SW2.9 kmh SW 7.4 mph11.9 kmh 30.01 in1016.3 mb 0.00 in0.0 mm 0.00 in0.0 mm 0.01 in0.3 mm
11:27 PM 34.7°F1.5°C 22.1°F-5.5°C 65% 2.5 mph SW4.0 kmh SW 8.1 mph13.0 kmh 30.01 in1016.3 mb 0.00 in0.0 mm 0.00 in0.0 mm 0.01 in0.3 mm
11:47 PM 34.5°F1.4°C 21.9°F-5.6°C 65% 3.1 mph SW5.0 kmh SW 7.4 mph11.9 kmh 30.00 in1015.9 mb 0.00 in0.0 mm 0.00 in0.0 mm 0.01 in0.3 mm